Rimforest, California
Current Conditions -  °F | °C
As of 10:35 PM on Thursday 30 Oct 2014 (Local Time) from KL35 Reporting Station
Clear Clear  
Wind Chill: 43°   Ceiling: Unl
Heat Index: 43°   Visibility: 10mi
Dew Point: 23°   Wind: 0mph
Humidity: 46%   Direction: NA
Pressure: 30.19"   Gusts: NA
Location:  34.23°N, 117.23°W
Report Text: KL35 310535Z AUTO 00000KT 10SM CLR 06/M05 A3019 RMK AO2
Loading
Personal Weather Stations






























Interactive Weather Map
Tropical Storm Tracking
New forecast layout! Learn more

10-Day Weather Forecast

Advertisements
Track Severe Weather on mobile